Time;durP1;ratioP1;P1;durP2;ratioP2;P2;SDS_P1;SDS_P2;PMS_P1;PMS_P2;Temp;Humidity;BMP_temperature;BMP_pressure;BME280_temperature;BME280_humidity;BME280_pressure;Samples;Min_cycle;Max_cycle;Signal;HPM_P1;HPM_P2
2022/01/30 00:02:47;;;;;;;;;4.00;3.00;;;;;10.06;50.08;97682.28;6198231;28;96951;-71
2022/01/30 00:05:51;;;;;;;;;2.00;2.00;;;;;10.30;49.75;97715.22;6186449;28;97442;-70
2022/01/30 00:08:54;;;;;;;;;2.00;1.50;;;;;10.44;48.98;97711.09;6186654;28;97542;-69
2022/01/30 00:12:01;;;;;;;;;2.00;2.00;;;;;10.58;48.98;97706.97;6185839;28;96535;-70
2022/01/30 00:15:04;;;;;;;;;2.00;2.00;;;;;10.70;49.33;97704.97;6186253;28;96715;-70
2022/01/30 00:18:19;;;;;;;;;2.00;2.00;;;;;10.82;49.35;97721.00;6200794;28;97445;-70
2022/01/30 00:21:33;;;;;;;;;1.00;1.00;;;;;10.92;49.26;97725.72;6188562;28;96291;-71
2022/01/30 00:24:45;;;;;;;;;1.00;1.00;;;;;11.04;49.03;97707.53;6188185;28;97525;-70
2022/01/30 00:27:55;;;;;;;;;3.60;3.60;;;;;11.14;48.76;97696.84;6186921;28;99622;-70
2022/01/30 00:31:00;;;;;;;;;1.00;1.00;;;;;11.20;48.50;97706.59;6189127;28;96612;-70
2022/01/30 00:34:05;;;;;;;;;3.00;3.00;;;;;11.20;48.42;97675.03;6203556;28;97443;-69
2022/01/30 00:37:08;;;;;;;;;1.00;1.00;;;;;11.17;48.50;97686.34;6194500;28;98824;-70
2022/01/30 00:40:12;;;;;;;;;1.60;1.60;;;;;11.30;48.54;97690.50;6212179;28;97433;-70
2022/01/30 00:43:18;;;;;;;;;2.00;2.00;;;;;11.33;48.23;97681.13;6176724;28;99526;-71
2022/01/30 00:46:22;;;;;;;;;3.00;2.00;;;;;11.19;48.60;97694.19;6205245;28;96628;-70
2022/01/30 00:49:27;;;;;;;;;2.00;2.00;;;;;11.12;48.99;97661.22;6190291;28;98889;-70
2022/01/30 00:52:30;;;;;;;;;3.00;2.00;;;;;11.07;49.21;97655.75;6207186;28;97519;-70
2022/01/30 00:55:34;;;;;;;;;1.00;1.00;;;;;10.81;49.54;97662.75;6191707;28;96904;-72
2022/01/30 00:58:37;;;;;;;;;1.00;1.00;;;;;10.98;48.87;97657.28;6202882;28;96644;-70
2022/01/30 01:01:40;;;;;;;;;2.00;2.00;;;;;10.79;49.68;97676.53;6190465;28;99570;-70
2022/01/30 01:04:46;;;;;;;;;3.00;2.00;;;;;11.08;49.08;97687.88;6190614;28;96458;-70
2022/01/30 01:07:54;;;;;;;;;1.00;1.00;;;;;11.09;49.26;97665.22;6220730;28;97495;-70
2022/01/30 01:11:02;;;;;;;;;2.00;2.00;;;;;11.18;48.65;97662.91;6215520;28;96832;-70
2022/01/30 01:20:54;;;;;;;;;2.00;2.00;;;;;11.19;48.33;97643.75;6198078;28;98000;-71
2022/01/30 01:24:27;;;;;;;;;1.80;1.80;;;;;11.45;47.79;97633.19;6195180;28;97315;-70
2022/01/30 01:27:30;;;;;;;;;3.00;3.00;;;;;11.36;48.13;97592.38;6194531;28;96891;-70
2022/01/30 01:30:33;;;;;;;;;3.00;2.00;;;;;10.69;48.52;97509.28;6213439;28;97555;-70
2022/01/30 01:33:47;;;;;;;;;3.00;3.00;;;;;10.89;50.18;97624.59;6214246;28;97551;-70
2022/01/30 01:36:52;;;;;;;;;1.50;1.50;;;;;10.99;50.06;97580.72;6197524;28;96857;-69
2022/01/30 01:39:55;;;;;;;;;2.00;2.00;;;;;10.95;50.25;97590.38;6209576;28;96556;-69
2022/01/30 01:43:01;;;;;;;;;2.00;2.00;;;;;11.04;50.36;97621.22;6207391;28;97525;-70
2022/01/30 01:46:13;;;;;;;;;3.25;3.00;;;;;11.16;51.01;97617.28;6205202;28;96478;-69
2022/01/30 01:49:24;;;;;;;;;2.00;2.00;;;;;11.11;52.54;97619.94;6189221;28;97964;-69
2022/01/30 01:52:30;;;;;;;;;2.00;2.00;;;;;11.08;52.73;97609.69;6173990;28;98622;-70
2022/01/30 01:55:33;;;;;;;;;2.60;2.60;;;;;10.79;53.00;97608.31;6186991;28;98362;-70
2022/01/30 01:58:37;;;;;;;;;3.00;3.00;;;;;10.72;53.78;97613.88;6187044;28;97149;-70
2022/01/30 02:02:01;;;;;;;;;2.40;2.40;;;;;10.75;53.24;97626.84;6209784;28;97041;-70
2022/01/30 02:05:06;;;;;;;;;2.00;2.00;;;;;10.54;53.19;97630.41;6214476;28;97491;-70
2022/01/30 02:08:30;;;;;;;;;3.00;3.00;;;;;10.56;52.57;97636.34;6214439;28;97505;-70
2022/01/30 02:11:37;;;;;;;;;2.00;2.00;;;;;10.57;51.66;97639.84;6195390;28;96476;-70
2022/01/30 02:14:48;;;;;;;;;2.60;2.40;;;;;10.57;51.28;97682.97;6206815;28;96449;-71
2022/01/30 02:24:43;;;;;;;;;2.60;2.00;;;;;10.34;49.80;97681.34;6205735;28;96437;-70
2022/01/30 02:27:47;;;;;;;;;3.75;3.75;;;;;10.28;50.40;97683.13;6188484;28;96634;-70
2022/01/30 02:30:58;;;;;;;;;4.00;3.00;;;;;10.21;50.71;97684.41;6188634;28;99476;-70
2022/01/30 02:34:01;;;;;;;;;4.00;3.00;;;;;10.14;51.14;97665.69;6209196;28;96573;-70
2022/01/30 02:37:06;;;;;;;;;3.00;3.00;;;;;10.20;50.98;97678.19;6211093;28;98354;-70
2022/01/30 02:40:15;;;;;;;;;4.00;3.00;;;;;10.19;50.45;97670.34;6211953;28;96624;-69
2022/01/30 02:43:22;;;;;;;;;4.00;3.00;;;;;10.28;50.08;97672.38;6195928;28;96593;-69
2022/01/30 02:46:33;;;;;;;;;3.20;3.00;;;;;10.22;50.01;97669.84;6170976;28;97969;-71
2022/01/30 02:49:56;;;;;;;;;3.80;3.20;;;;;10.16;49.62;97663.59;6188789;28;97590;-71
2022/01/30 02:53:01;;;;;;;;;3.00;2.60;;;;;10.22;48.99;97672.53;6217583;28;96555;-70
2022/01/30 02:56:06;;;;;;;;;4.00;4.00;;;;;10.24;48.42;97692.78;6200353;28;96551;-71
2022/01/30 02:59:10;;;;;;;;;4.00;3.00;;;;;10.02;46.94;97664.16;6205101;28;97840;-70
2022/01/30 03:02:14;;;;;;;;;4.00;3.00;;;;;10.30;46.69;97686.41;6217448;28;97599;-70
2022/01/30 03:05:17;;;;;;;;;2.00;2.00;;;;;10.25;45.57;97678.25;6188757;28;97498;-71
2022/01/30 03:08:20;;;;;;;;;3.00;2.00;;;;;10.16;45.03;97690.53;6187710;28;99733;-70
2022/01/30 03:11:26;;;;;;;;;3.00;3.00;;;;;10.32;44.84;97678.88;6187104;28;97787;-70
2022/01/30 03:14:29;;;;;;;;;3.00;3.00;;;;;10.30;44.69;97694.50;6212699;28;97390;-70
2022/01/30 03:17:33;;;;;;;;;3.00;3.00;;;;;10.42;45.28;97691.66;6212402;28;96568;-70
2022/01/30 03:20:36;;;;;;;;;5.00;3.00;;;;;10.40;45.08;97673.09;6213088;28;96589;-71
2022/01/30 03:23:40;;;;;;;;;4.00;4.00;;;;;10.32;45.12;97672.69;6179489;28;98312;-70
2022/01/30 03:26:45;;;;;;;;;3.00;3.00;;;;;10.23;45.25;97658.00;6186091;28;98372;-70
2022/01/30 03:30:07;;;;;;;;;2.40;2.40;;;;;10.49;45.28;97676.16;6169429;28;96660;-70
2022/01/30 03:33:39;;;;;;;;;4.00;3.00;;;;;10.39;44.12;97679.53;6202165;28;97650;-70
2022/01/30 03:36:42;;;;;;;;;3.00;2.00;;;;;10.42;43.16;97664.72;6209208;28;96488;-70
2022/01/30 03:39:46;;;;;;;;;2.60;2.00;;;;;10.25;43.05;97661.28;6210960;28;96899;-70
2022/01/30 03:42:51;;;;;;;;;2.00;2.00;;;;;10.30;42.49;97650.56;6171142;28;97879;-69
2022/01/30 03:45:55;;;;;;;;;4.00;3.00;;;;;10.37;41.33;97646.63;6187137;28;96488;-70
2022/01/30 03:48:58;;;;;;;;;1.80;1.80;;;;;10.39;40.82;97628.34;6203759;28;96542;-70
2022/01/30 03:52:07;;;;;;;;;2.00;2.00;;;;;10.30;40.30;97653.28;6202743;28;96642;-70
2022/01/30 03:55:10;;;;;;;;;1.80;1.00;;;;;10.39;39.55;97644.50;6187041;28;96624;-70
2022/01/30 03:58:15;;;;;;;;;3.00;2.00;;;;;10.26;39.52;97652.94;6186932;28;97466;-70
2022/01/30 04:01:19;;;;;;;;;3.60;2.00;;;;;10.34;39.19;97643.63;6169168;28;98364;-70
2022/01/30 04:04:23;;;;;;;;;3.00;3.00;;;;;10.18;38.80;97633.72;6206760;28;97326;-69
2022/01/30 04:07:27;;;;;;;;;4.00;3.80;;;;;10.38;38.33;97634.78;6207296;28;96419;-70
2022/01/30 04:10:49;;;;;;;;;2.00;1.00;;;;;10.35;37.76;97629.91;6211184;28;98466;-69
2022/01/30 04:14:05;;;;;;;;;3.00;2.00;;;;;10.50;38.05;97623.91;6211565;28;96826;-70
2022/01/30 04:17:20;;;;;;;;;2.67;2.00;;;;;10.44;37.58;97606.03;6211743;28;97405;-70
2022/01/30 04:20:41;;;;;;;;;3.00;2.00;;;;;10.64;37.89;97611.66;6197007;28;96480;-70
2022/01/30 04:23:47;;;;;;;;;3.00;3.00;;;;;10.60;37.54;97607.03;6192625;28;96491;-70
2022/01/30 04:27:11;;;;;;;;;2.40;2.00;;;;;10.46;38.02;97586.94;6180932;28;99415;-71
2022/01/30 04:30:29;;;;;;;;;2.60;2.00;;;;;10.43;38.42;97616.00;6214708;28;97010;-71
2022/01/30 04:33:59;;;;;;;;;3.80;2.00;;;;;10.43;39.01;97583.66;6213539;28;96596;-70
2022/01/30 04:37:21;;;;;;;;;68.40;59.00;;;;;10.34;39.38;97603.22;6214988;28;97592;-70
2022/01/30 04:41:19;;;;;;;;;72.00;63.40;;;;;10.28;40.11;97599.66;6187933;28;97065;-71
2022/01/30 04:59:49;;;;;;;;;45.75;39.50;;;;;9.01;50.46;97649.88;6157321;28;99471;-70
2022/01/30 05:03:19;;;;;;;;;37.00;34.00;;;;;8.56;51.62;97621.09;6189400;28;96960;-69
2022/01/30 05:07:26;;;;;;;;;13.40;13.40;;;;;8.33;50.54;97621.19;6202762;28;97388;-70
2022/01/30 05:10:41;;;;;;;;;16.20;15.80;;;;;8.25;50.34;97624.22;6187544;28;96741;-69
2022/01/30 05:14:03;;;;;;;;;42.25;37.25;;;;;8.09;50.27;97616.91;6213839;28;96919;-69
2022/01/30 05:17:31;;;;;;;;;21.80;21.40;;;;;8.16;49.93;97615.72;6165826;28;98477;-70
2022/01/30 05:20:45;;;;;;;;;30.00;29.60;;;;;8.27;49.66;97630.16;6208163;28;96930;-70
2022/01/30 05:24:05;;;;;;;;;54.20;46.00;;;;;8.26;49.32;97607.88;6208589;28;96737;-70
2022/01/30 05:27:17;;;;;;;;;55.50;46.25;;;;;8.25;48.73;97578.59;6190133;28;96956;-69
2022/01/30 05:30:33;;;;;;;;;29.00;26.40;;;;;8.34;48.65;97565.63;6210593;28;98129;-69
2022/01/30 05:33:56;;;;;;;;;2.00;1.00;;;;;8.60;48.48;97595.38;6209271;28;98571;-69
2022/01/30 05:37:19;;;;;;;;;2.00;1.00;;;;;8.64;48.37;97583.13;6209451;28;96744;-69
2022/01/30 05:40:43;;;;;;;;;3.00;2.80;;;;;8.70;47.95;97576.78;6202393;28;97356;-69
2022/01/30 05:44:13;;;;;;;;;2.00;1.00;;;;;8.81;47.66;97537.47;6186743;28;96718;-69
2022/01/30 05:47:40;;;;;;;;;3.00;2.00;;;;;8.79;46.73;97525.34;6189334;28;97387;-70
2022/01/30 05:51:09;;;;;;;;;3.50;2.50;;;;;8.79;45.63;97512.72;6166916;28;97447;-71
2022/01/30 05:54:33;;;;;;;;;0.00;0.00;;;;;8.61;45.13;97502.19;6215342;28;98494;-70
2022/01/30 05:57:37;;;;;;;;;0.00;0.00;;;;;8.90;43.94;97481.44;6187842;28;97949;-70
2022/01/30 06:00:41;;;;;;;;;0.00;0.00;;;;;9.00;43.74;97495.84;6213992;28;96585;-70
2022/01/30 06:03:44;;;;;;;;;1.00;0.00;;;;;9.00;42.37;97474.34;6212503;28;97363;-69
2022/01/30 06:06:50;;;;;;;;;0.00;0.00;;;;;9.02;42.09;97517.13;6213111;28;97060;-69
2022/01/30 06:09:54;;;;;;;;;0.00;0.00;;;;;8.89;41.19;97456.47;6188360;28;96819;-69
2022/01/30 06:12:59;;;;;;;;;0.00;0.00;;;;;9.00;40.64;97439.41;6208262;28;97467;-69
2022/01/30 06:16:03;;;;;;;;;0.00;0.00;;;;;9.30;40.20;97478.53;6185673;28;100001;-70
2022/01/30 06:19:06;;;;;;;;;0.00;0.00;;;;;9.32;39.53;97463.00;6172898;28;100462;-69
2022/01/30 06:22:43;;;;;;;;;0.00;0.00;;;;;9.45;39.23;97479.56;6144611;28;96699;-70
2022/01/30 06:26:07;;;;;;;;;0.00;0.00;;;;;9.49;39.10;97490.63;6194190;28;97218;-70
2022/01/30 06:29:38;;;;;;;;;0.00;0.00;;;;;9.47;39.42;97482.03;6208294;28;97454;-70
2022/01/30 06:33:00;;;;;;;;;0.00;0.00;;;;;9.63;39.22;97489.22;6210421;28;96846;-70
2022/01/30 06:36:22;;;;;;;;;0.00;0.00;;;;;9.77;39.57;97485.13;6211811;28;97758;-69
2022/01/30 06:39:35;;;;;;;;;0.00;0.00;;;;;9.72;39.61;97516.53;6206901;28;96834;-70
2022/01/30 06:42:57;;;;;;;;;0.00;0.00;;;;;9.82;39.67;97489.75;6209900;28;98332;-70
2022/01/30 06:46:21;;;;;;;;;0.00;0.00;;;;;9.88;39.79;97486.03;6206933;28;98376;-69
2022/01/30 06:49:53;;;;;;;;;0.00;0.00;;;;;9.74;40.33;97504.44;6214507;28;96716;-70
2022/01/30 06:53:08;;;;;;;;;0.00;0.00;;;;;9.71;40.89;97504.13;6197159;28;96870;-70
2022/01/30 06:56:30;;;;;;;;;0.00;0.00;;;;;9.72;40.91;97511.16;6211683;28;96635;-71
2022/01/30 06:59:52;;;;;;;;;0.00;0.00;;;;;9.72;40.84;97511.16;6210322;28;97489;-69
2022/01/30 07:03:15;;;;;;;;;0.00;0.00;;;;;9.80;40.77;97500.75;6202669;28;99437;-71
2022/01/30 07:06:48;;;;;;;;;0.00;0.00;;;;;9.84;40.46;97493.78;6184246;28;99423;-69
2022/01/30 07:09:51;;;;;;;;;0.00;0.00;;;;;9.74;40.42;97498.22;6204152;28;97053;-69
2022/01/30 07:12:54;;;;;;;;;0.00;0.00;;;;;9.61;40.22;97485.16;6210209;28;97122;-70
2022/01/30 07:15:57;;;;;;;;;0.00;0.00;;;;;9.82;40.01;97498.59;6188699;28;96980;-69
2022/01/30 07:19:02;;;;;;;;;0.00;0.00;;;;;9.88;40.02;97494.09;6208432;28;96734;-70
2022/01/30 07:22:06;;;;;;;;;0.00;0.00;;;;;10.00;39.66;97495.63;6219492;28;97952;-69
2022/01/30 07:25:10;;;;;;;;;0.00;0.00;;;;;9.95;39.68;97495.56;6185995;28;97053;-68
2022/01/30 07:28:13;;;;;;;;;0.00;0.00;;;;;10.04;39.27;97478.94;6207636;28;97590;-68
2022/01/30 07:31:16;;;;;;;;;0.00;0.00;;;;;9.27;39.20;97393.81;6206300;28;98039;-69
2022/01/30 07:34:22;;;;;;;;;0.00;0.00;;;;;9.88;39.77;97499.47;6209462;28;97806;-68
2022/01/30 07:37:26;;;;;;;;;0.00;0.00;;;;;10.11;39.83;97503.81;6207319;28;97250;-69
2022/01/30 07:40:32;;;;;;;;;49.75;18.75;;;;;9.97;40.19;97504.16;6206781;28;97791;-68
2022/01/30 07:43:35;;;;;;;;;70.00;60.75;;;;;9.79;39.91;97498.31;6206334;28;96677;-69
2022/01/30 07:46:39;;;;;;;;;47.40;40.60;;;;;9.90;40.03;97483.91;6190829;28;96655;-69
2022/01/30 07:49:49;;;;;;;;;37.00;33.80;;;;;9.84;40.73;97491.09;6204497;28;96735;-69
2022/01/30 07:52:52;;;;;;;;;4.40;4.40;;;;;9.84;40.84;97493.78;6217550;27;98215;-69
2022/01/30 07:55:56;;;;;;;;;5.00;5.00;;;;;9.75;40.84;97470.25;6206645;28;96573;-69
2022/01/30 07:58:59;;;;;;;;;7.75;7.75;;;;;9.69;41.05;97490.91;6207992;28;96758;-69
2022/01/30 08:02:03;;;;;;;;;5.40;5.40;;;;;9.61;40.91;97442.94;6210292;28;96902;-69
2022/01/30 08:05:09;;;;;;;;;5.00;4.60;;;;;9.88;40.89;97462.63;6208261;28;96586;-68
2022/01/30 08:08:12;;;;;;;;;15.80;15.80;;;;;9.92;40.76;97474.50;6188208;28;97276;-68
2022/01/30 08:11:15;;;;;;;;;0.00;0.00;;;;;9.78;40.85;97486.72;6206636;28;96587;-68
2022/01/30 08:14:18;;;;;;;;;32.00;30.40;;;;;9.50;42.59;97479.63;6204988;28;98643;-69
2022/01/30 08:17:23;;;;;;;;;7.00;6.00;;;;;9.58;42.26;97446.91;6211801;28;96858;-68
2022/01/30 08:20:28;;;;;;;;;18.40;18.00;;;;;9.53;41.79;97454.91;6211763;28;96828;-70
2022/01/30 08:23:33;;;;;;;;;62.00;51.40;;;;;10.25;40.64;97473.56;6198164;28;97508;-68
2022/01/30 08:26:36;;;;;;;;;4.60;4.20;;;;;10.92;39.62;97450.69;6204959;28;96864;-69
2022/01/30 08:29:39;;;;;;;;;3.80;3.80;;;;;10.23;40.74;97478.38;6209822;28;97453;-69
2022/01/30 08:32:44;;;;;;;;;66.80;56.20;;;;;10.26;41.54;97475.16;6208051;28;97607;-69
2022/01/30 08:35:50;;;;;;;;;72.60;65.40;;;;;9.88;42.83;97446.47;6206455;28;98088;-69
2022/01/30 08:38:53;;;;;;;;;70.00;61.00;;;;;10.08;42.61;97445.88;6204198;28;97516;-70
2022/01/30 08:41:56;;;;;;;;;72.00;64.33;;;;;9.69;43.30;97452.44;6199503;28;96837;-70
2022/01/30 08:44:59;;;;;;;;;73.00;66.20;;;;;9.65;43.93;97422.53;6202607;28;97891;-69
2022/01/30 08:48:03;;;;;;;;;70.60;62.60;;;;;9.54;44.01;97471.88;6202862;28;98306;-69
2022/01/30 08:51:07;;;;;;;;;3.60;3.60;;;;;9.15;45.36;97468.38;6211807;28;96403;-69
2022/01/30 08:54:11;;;;;;;;;4.25;3.00;;;;;9.03;46.76;97481.13;6188412;28;97513;-70
2022/01/30 08:57:14;;;;;;;;;4.75;4.50;;;;;9.05;46.85;97509.38;6187474;28;96651;-70
2022/01/30 09:00:18;;;;;;;;;5.00;4.40;;;;;8.88;47.45;97491.63;6198704;28;96623;-70
2022/01/30 09:03:21;;;;;;;;;3.00;3.00;;;;;8.97;47.91;97499.03;6198803;28;97583;-70
2022/01/30 09:06:26;;;;;;;;;3.00;3.00;;;;;8.49;49.13;97491.53;6210262;28;97174;-70
2022/01/30 09:09:30;;;;;;;;;4.00;3.00;;;;;8.49;49.52;97499.59;6209334;28;97408;-70
2022/01/30 09:12:34;;;;;;;;;5.00;4.00;;;;;8.16;50.26;97488.75;6192882;28;96666;-70
2022/01/30 09:15:40;;;;;;;;;3.60;3.60;;;;;8.36;50.44;97486.44;6197275;28;96929;-69
2022/01/30 09:18:44;;;;;;;;;3.20;3.00;;;;;8.37;50.75;97485.41;6210396;28;97387;-70
2022/01/30 09:21:51;;;;;;;;;5.00;4.00;;;;;8.34;51.24;97507.38;6186221;28;97921;-69
2022/01/30 09:24:54;;;;;;;;;5.00;4.20;;;;;8.30;51.36;97519.66;6204429;28;96744;-69
2022/01/30 09:27:57;;;;;;;;;4.80;4.00;;;;;8.19;51.36;97504.38;6209731;28;99080;-69
2022/01/30 09:31:01;;;;;;;;;4.50;4.00;;;;;8.11;51.38;97535.06;6215953;28;96481;-69
2022/01/30 09:34:04;;;;;;;;;6.00;5.00;;;;;8.03;51.92;97523.91;6208034;28;96558;-69
2022/01/30 09:37:09;;;;;;;;;7.00;5.00;;;;;7.97;53.06;97514.94;6207562;28;96742;-69
2022/01/30 09:40:14;;;;;;;;;4.00;3.40;;;;;8.04;52.45;97502.22;6214323;28;96904;-69
2022/01/30 09:43:17;;;;;;;;;4.40;4.00;;;;;8.17;51.64;97498.41;6191070;28;99121;-69
2022/01/30 09:46:21;;;;;;;;;3.00;3.00;;;;;8.36;51.33;97510.63;6193672;28;96944;-68
2022/01/30 09:49:28;;;;;;;;;3.20;3.20;;;;;8.24;51.45;97504.47;6205735;28;97802;-69
2022/01/30 09:52:32;;;;;;;;;4.60;3.00;;;;;8.41;50.99;97508.03;6210759;28;96655;-68
2022/01/30 09:55:35;;;;;;;;;5.00;5.00;;;;;8.32;50.65;97495.22;6201856;28;96733;-68
2022/01/30 09:58:39;;;;;;;;;4.00;4.00;;;;;8.32;50.44;97497.91;6203297;28;97604;-69
2022/01/30 10:01:42;;;;;;;;;6.60;5.60;;;;;8.57;49.99;97485.75;6197908;28;97445;-68
2022/01/30 10:04:46;;;;;;;;;5.80;5.40;;;;;8.59;49.13;97482.84;6179946;28;98331;-69
2022/01/30 10:07:55;;;;;;;;;6.50;5.50;;;;;8.72;48.56;97484.38;6189958;28;98108;-68
2022/01/30 10:11:01;;;;;;;;;4.40;4.40;;;;;8.79;48.42;97458.16;6208881;28;97866;-70
2022/01/30 10:14:06;;;;;;;;;4.20;4.00;;;;;8.78;47.91;97468.09;6197204;28;97480;-69
2022/01/30 10:17:09;;;;;;;;;2.80;2.80;;;;;8.73;47.44;97451.09;6198335;28;96514;-70
2022/01/30 10:20:14;;;;;;;;;3.60;3.00;;;;;8.84;46.47;97442.94;6204490;28;97438;-68
2022/01/30 10:23:19;;;;;;;;;4.00;4.00;;;;;9.04;45.81;97453.19;6199126;28;97423;-68
2022/01/30 10:26:31;;;;;;;;;4.40;4.00;;;;;9.32;44.58;97465.69;6205046;28;97029;-68
2022/01/30 10:29:34;;;;;;;;;3.40;3.00;;;;;9.70;44.18;97452.19;6191697;28;96609;-67
2022/01/30 10:32:37;;;;;;;;;3.75;3.00;;;;;10.07;43.99;97460.41;6211544;28;97218;-69
2022/01/30 10:35:53;;;;;;;;;4.00;4.00;;;;;10.04;43.85;97478.94;6210050;28;97448;-68
2022/01/30 10:39:04;;;;;;;;;3.00;3.00;;;;;10.05;43.57;97473.31;6207585;28;97480;-69
2022/01/30 10:42:35;;;;;;;;;3.60;3.60;;;;;10.03;43.53;97472.75;6195918;28;96635;-69
2022/01/30 10:45:58;;;;;;;;;4.00;4.00;;;;;9.88;43.95;97488.72;6214428;28;97495;-68
2022/01/30 10:49:09;;;;;;;;;4.00;3.00;;;;;9.94;44.07;97493.09;6195329;28;98448;-68
2022/01/30 10:52:15;;;;;;;;;3.20;3.00;;;;;9.75;44.77;97502.56;6213973;28;96491;-69
2022/01/30 10:55:32;;;;;;;;;4.00;4.00;;;;;9.54;45.35;97461.13;6213042;28;97277;-69
2022/01/30 10:58:35;;;;;;;;;3.00;2.80;;;;;9.73;45.17;97512.75;6211716;28;97215;-69
2022/01/30 11:01:40;;;;;;;;;4.00;4.00;;;;;9.85;45.25;97537.69;6207460;28;97711;-69
2022/01/30 11:04:44;;;;;;;;;5.00;4.00;;;;;9.45;46.49;97540.63;6209732;28;97442;-68
2022/01/30 11:07:50;;;;;;;;;3.00;3.00;;;;;9.51;47.57;97564.66;6202945;28;98139;-70
2022/01/30 11:11:10;;;;;;;;;5.40;4.00;;;;;9.34;48.86;97547.72;6203357;28;97510;-68
2022/01/30 11:14:17;;;;;;;;;7.20;5.60;;;;;9.02;50.27;97566.31;6194099;28;96908;-70
2022/01/30 11:17:22;;;;;;;;;4.00;3.00;;;;;8.84;50.82;97584.56;6189998;28;99607;-68
2022/01/30 11:20:28;;;;;;;;;5.00;4.00;;;;;8.79;51.06;97566.47;6211752;28;97054;-68
2022/01/30 11:23:32;;;;;;;;;2.00;2.00;;;;;8.61;51.76;97543.31;6209584;28;97313;-68
2022/01/30 11:26:38;;;;;;;;;6.20;3.80;;;;;8.37;52.59;97547.16;6193984;28;98418;-68
2022/01/30 11:29:42;;;;;;;;;4.00;3.60;;;;;8.22;53.15;97579.88;6210158;28;96432;-69
2022/01/30 11:32:46;;;;;;;;;4.00;3.75;;;;;8.07;53.57;97589.47;6210628;28;96546;-70
2022/01/30 11:35:50;;;;;;;;;5.40;4.00;;;;;7.85;54.20;97551.75;6208652;28;98462;-69
2022/01/30 11:38:54;;;;;;;;;4.00;4.00;;;;;7.84;54.63;97539.38;6197007;28;97637;-69
2022/01/30 11:42:12;;;;;;;;;5.00;4.00;;;;;7.77;55.04;97557.47;6205294;28;96807;-69
2022/01/30 11:45:19;;;;;;;;;6.00;5.00;;;;;7.60;55.59;97553.88;6222882;28;97293;-69
2022/01/30 11:48:36;;;;;;;;;5.00;5.00;;;;;7.61;55.71;97558.19;6200332;28;96840;-69
2022/01/30 11:51:49;;;;;;;;;4.60;4.00;;;;;7.54;55.88;97541.41;6202051;28;98040;-69
2022/01/30 11:54:57;;;;;;;;;5.80;4.20;;;;;7.59;56.45;97536.97;6203700;28;97570;-70
2022/01/30 11:58:01;;;;;;;;;4.40;4.40;;;;;7.77;55.97;97531.44;6206498;28;97307;-70
2022/01/30 12:01:13;;;;;;;;;5.60;5.40;;;;;7.99;55.52;97537.00;6202564;28;97284;-70
2022/01/30 12:04:17;;;;;;;;;4.80;4.80;;;;;7.99;54.97;97501.28;6205313;28;97473;-69
2022/01/30 12:07:34;;;;;;;;;5.00;5.00;;;;;8.04;55.09;97517.50;6209359;28;96868;-69
2022/01/30 12:10:38;;;;;;;;;5.00;5.00;;;;;8.20;54.85;97530.16;6197247;28;98364;-69
2022/01/30 12:13:45;;;;;;;;;5.00;5.00;;;;;8.20;54.74;97519.44;6210071;28;97588;-70
2022/01/30 12:16:51;;;;;;;;;5.40;5.00;;;;;8.17;54.98;97509.16;6197577;28;97370;-69
2022/01/30 12:20:05;;;;;;;;;5.20;4.20;;;;;8.24;54.66;97513.34;6210979;28;97414;-69
2022/01/30 12:23:25;;;;;;;;;5.00;5.00;;;;;8.35;54.53;97519.75;6210287;28;96449;-70
2022/01/30 12:26:51;;;;;;;;;6.60;5.40;;;;;8.19;55.28;97507.88;6210956;28;97459;-69
2022/01/30 12:29:56;;;;;;;;;7.00;6.00;;;;;8.06;55.46;97513.50;6202987;28;99548;-69
2022/01/30 12:33:00;;;;;;;;;6.00;6.00;;;;;8.11;55.30;97518.19;6209850;28;97449;-69
2022/01/30 12:36:10;;;;;;;;;8.00;7.00;;;;;8.12;55.10;97501.00;6206977;28;97419;-69
2022/01/30 12:39:18;;;;;;;;;7.80;5.80;;;;;8.08;55.15;97511.41;6203406;28;98373;-69
2022/01/30 12:42:23;;;;;;;;;8.20;6.20;;;;;8.13;54.99;97519.56;6212690;28;96852;-68
2022/01/30 12:45:28;;;;;;;;;5.25;5.00;;;;;8.30;54.77;97516.97;6210104;28;97123;-68
2022/01/30 12:48:31;;;;;;;;;6.40;6.00;;;;;8.24;54.52;97515.19;6207155;28;97187;-69
2022/01/30 12:51:36;;;;;;;;;6.00;5.60;;;;;8.34;54.03;97520.78;6211289;28;96756;-69
2022/01/30 12:54:41;;;;;;;;;7.00;6.00;;;;;8.16;53.96;97526.34;6190802;28;99029;-68
2022/01/30 12:57:46;;;;;;;;;7.00;6.00;;;;;8.04;54.34;97533.59;6188513;28;98339;-70
2022/01/30 13:01:06;;;;;;;;;7.00;7.00;;;;;8.31;53.28;97542.75;6197559;28;97486;-69
2022/01/30 13:04:12;;;;;;;;;9.40;7.40;;;;;8.22;53.02;97542.28;6206823;28;96829;-68
2022/01/30 13:07:15;;;;;;;;;5.00;5.00;;;;;8.46;51.63;97548.41;6213146;28;97144;-70
2022/01/30 13:10:18;;;;;;;;;6.00;5.00;;;;;8.62;51.62;97557.56;6213843;28;96658;-68
2022/01/30 13:13:21;;;;;;;;;4.60;4.00;;;;;8.68;50.91;97564.66;6213812;28;96993;-70
2022/01/30 13:16:29;;;;;;;;;4.00;3.00;;;;;8.64;50.82;97547.41;6213842;28;96658;-69
2022/01/30 13:19:35;;;;;;;;;5.80;4.20;;;;;8.73;50.12;97545.13;6213290;28;96798;-70
2022/01/30 13:22:40;;;;;;;;;4.20;3.00;;;;;8.67;49.66;97547.72;6212648;28;97981;-68
2022/01/30 13:25:48;;;;;;;;;4.20;4.00;;;;;8.78;49.99;97569.38;6188417;28;99700;-69
2022/01/30 13:28:52;;;;;;;;;6.80;5.00;;;;;8.81;49.78;97569.72;6210420;28;97476;-69
2022/01/30 13:31:59;;;;;;;;;4.60;4.60;;;;;8.87;49.90;97576.00;6205985;28;97698;-70
2022/01/30 13:35:03;;;;;;;;;6.40;6.00;;;;;8.80;49.65;97578.81;6203402;28;97432;-69
2022/01/30 13:38:07;;;;;;;;;6.00;5.00;;;;;8.78;49.59;97589.00;6187436;28;96811;-70
2022/01/30 13:41:26;;;;;;;;;5.20;5.00;;;;;8.63;49.39;97578.81;6201660;28;97358;-70
2022/01/30 13:44:43;;;;;;;;;4.00;4.00;;;;;8.88;49.60;97610.69;6202585;28;96466;-70
2022/01/30 13:47:52;;;;;;;;;4.60;4.60;;;;;8.90;49.39;97610.44;6208229;28;97423;-69
2022/01/30 13:51:03;;;;;;;;;5.00;5.00;;;;;9.00;49.77;97630.25;6205193;28;97305;-70
2022/01/30 13:54:09;;;;;;;;;6.00;5.00;;;;;8.91;50.01;97641.63;6189282;28;98343;-68
2022/01/30 13:57:12;;;;;;;;;5.00;4.40;;;;;8.85;49.71;97613.84;6187179;28;97802;-69
2022/01/30 14:00:20;;;;;;;;;5.80;4.80;;;;;8.76;50.51;97642.16;6188630;28;97429;-69
2022/01/30 14:03:26;;;;;;;;;6.33;6.00;;;;;8.75;50.38;97642.44;6210365;28;96978;-69
2022/01/30 14:06:34;;;;;;;;;6.00;6.00;;;;;8.65;50.75;97654.59;6209603;28;97025;-69
2022/01/30 14:09:44;;;;;;;;;6.00;5.20;;;;;8.59;51.39;97674.38;6210437;28;97841;-70
2022/01/30 14:12:47;;;;;;;;;6.00;5.40;;;;;8.47;51.81;97649.41;6185720;28;98501;-69
2022/01/30 14:16:01;;;;;;;;;5.00;5.00;;;;;8.43;51.93;97663.53;6211612;28;97110;-69
2022/01/30 14:19:17;;;;;;;;;5.00;5.00;;;;;8.27;52.58;97676.63;6208990;28;96832;-66
2022/01/30 14:22:25;;;;;;;;;3.60;3.60;;;;;8.33;52.79;97690.19;6198829;28;99105;-68
2022/01/30 14:25:30;;;;;;;;;29.25;23.50;;;;;8.09;53.16;97684.00;6203458;28;98765;-70
2022/01/30 14:28:34;;;;;;;;;6.80;6.00;;;;;8.24;52.99;97712.00;6202606;28;96537;-70
2022/01/30 14:31:49;;;;;;;;;8.40;5.00;;;;;8.12;53.32;97713.06;6203851;28;96572;-70
2022/01/30 14:34:55;;;;;;;;;5.00;3.40;;;;;8.25;53.37;97708.28;6216722;28;97025;-68
2022/01/30 14:37:58;;;;;;;;;5.40;3.00;;;;;8.33;52.98;97727.78;6214428;27;97961;-70
2022/01/30 14:41:02;;;;;;;;;4.00;4.00;;;;;8.44;53.12;97727.78;6205517;28;97135;-70
2022/01/30 14:44:06;;;;;;;;;6.00;5.00;;;;;8.22;53.07;97729.38;6184437;28;97815;-69
2022/01/30 14:47:10;;;;;;;;;4.00;4.00;;;;;8.37;53.13;97739.69;6206648;28;98698;-68
2022/01/30 14:50:15;;;;;;;;;5.00;5.00;;;;;8.27;53.46;97764.41;6203479;28;96675;-69
2022/01/30 14:53:18;;;;;;;;;4.00;4.00;;;;;8.16;53.36;97744.56;6204634;28;96662;-70
2022/01/30 14:56:22;;;;;;;;;5.00;3.60;;;;;8.24;53.22;97767.56;6185505;28;96866;-70
2022/01/30 14:59:25;;;;;;;;;5.00;5.00;;;;;8.32;53.25;97769.09;6205938;28;96512;-69
2022/01/30 15:02:28;;;;;;;;;4.00;3.33;;;;;8.18;53.66;97763.13;6198987;28;98529;-69
2022/01/30 15:05:33;;;;;;;;;3.25;3.00;;;;;8.19;53.61;97773.63;6164525;28;1256838;-69
2022/01/30 15:08:37;;;;;;;;;4.00;3.00;;;;;8.27;53.13;97780.50;6192676;28;96835;-69
2022/01/30 15:11:40;;;;;;;;;3.80;3.80;;;;;8.38;53.18;97773.53;6202590;28;97780;-69
2022/01/30 15:14:50;;;;;;;;;5.00;4.00;;;;;8.26;52.84;97774.31;6217542;28;97226;-68
2022/01/30 15:17:54;;;;;;;;;6.00;4.00;;;;;8.27;53.16;97775.97;6207233;28;98003;-68
2022/01/30 15:20:58;;;;;;;;;6.00;6.00;;;;;8.34;52.91;97789.31;6206258;28;98167;-67
2022/01/30 15:24:02;;;;;;;;;5.00;4.00;;;;;7.99;53.01;97750.88;6199672;28;97807;-69